Time;durP1;ratioP1;P1;durP2;ratioP2;P2;SDS_P1;SDS_P2;PMS_P1;PMS_P2;Temp;Humidity;BMP_temperature;BMP_pressure;BME280_temperature;BME280_humidity;BME280_pressure;Samples;Min_cycle;Max_cycle;Signal;HPM_P1;HPM_P2
2021/01/16 00:01:33;;;;;;;16.80;8.18;;;;;;;1.97;67.66;100957.22;3818105;23;20458;-78
2021/01/16 00:03:09;;;;;;;15.25;8.38;;;;;;;1.99;68.08;100946.59;3820342;23;20021;-78
2021/01/16 00:04:41;;;;;;;13.18;6.32;;;;;;;1.98;67.95;100951.00;3815587;23;20028;-78
2021/01/16 00:06:14;;;;;;;16.83;8.63;;;;;;;1.99;67.89;100950.06;3818417;23;20292;-78
2021/01/16 00:07:57;;;;;;;15.13;8.40;;;;;;;2.02;67.91;100946.47;3811959;23;20021;-78
2021/01/16 00:09:29;;;;;;;17.27;8.55;;;;;;;2.03;68.05;100953.44;3818559;23;20033;-78
2021/01/16 00:11:01;;;;;;;14.23;7.72;;;;;;;2.09;67.97;100958.44;3815274;23;20467;-78
2021/01/16 00:12:32;;;;;;;14.07;6.85;;;;;;;2.11;67.94;100947.81;3819041;23;20021;-78
2021/01/16 00:14:03;;;;;;;15.82;7.55;;;;;;;2.13;67.92;100961.78;3815410;23;20606;-78
2021/01/16 00:15:40;;;;;;;17.23;9.43;;;;;;;2.07;68.08;100951.53;3819790;23;20025;-78
2021/01/16 00:17:16;;;;;;;14.60;8.15;;;;;;;2.01;68.08;100948.22;3814929;23;20093;-80
2021/01/16 00:18:47;;;;;;;14.75;7.32;;;;;;;1.99;68.36;100944.78;3817054;23;20021;-78
2021/01/16 00:20:18;;;;;;;13.27;6.47;;;;;;;2.06;68.29;100949.81;3819818;23;20032;-79
2021/01/16 00:21:49;;;;;;;;;;;;;;;1.95;68.54;100947.63;3814419;23;20080;-78
2021/01/16 00:23:22;;;;;;;19.52;8.15;;;;;;;2.02;68.19;100949.94;3819833;23;19923;-79
2021/01/16 00:24:58;;;;;;;14.35;7.32;;;;;;;1.99;68.17;100950.06;3816067;23;20030;-78
2021/01/16 00:26:29;;;;;;;15.65;7.32;;;;;;;2.01;68.29;100944.75;3820096;23;20029;-78
2021/01/16 00:28:01;;;;;;;15.82;7.63;;;;;;;1.98;68.12;100942.22;3814658;23;20025;-78
2021/01/16 00:29:33;;;;;;;11.88;6.53;;;;;;;2.06;68.08;100948.00;3819536;23;20030;-78
2021/01/16 00:31:05;;;;;;;11.90;6.72;;;;;;;2.09;68.01;100947.00;3814490;23;20021;-78
2021/01/16 00:32:36;;;;;;;19.48;7.22;;;;;;;2.08;67.92;100954.09;3818788;23;20018;-79
2021/01/16 00:34:08;;;;;;;13.75;6.95;;;;;;;2.08;67.81;100948.81;3813612;23;20072;-78
2021/01/16 00:35:39;;;;;;;15.77;7.10;;;;;;;2.07;68.05;100944.47;3818789;23;20017;-78
2021/01/16 00:37:10;;;;;;;15.57;7.72;;;;;;;2.10;67.98;100951.38;3815932;23;20028;-78
2021/01/16 00:38:43;;;;;;;15.82;7.97;;;;;;;2.07;68.08;100947.09;3819005;23;20025;-78
2021/01/16 00:40:20;;;;;;;16.67;8.93;;;;;;;2.04;68.09;100947.22;3814511;23;20017;-78
2021/01/16 00:41:53;;;;;;;18.13;8.23;;;;;;;2.11;68.21;100950.44;3818948;23;20041;-78
2021/01/16 00:43:24;;;;;;;15.57;7.55;;;;;;;2.07;68.21;100940.97;3815007;23;20021;-78
2021/01/16 00:44:55;;;;;;;14.90;6.22;;;;;;;2.09;68.09;100939.09;3819231;23;20026;-78
2021/01/16 00:46:26;;;;;;;;;;;;;;;1.99;68.35;100942.16;3813709;23;20017;-78
2021/01/16 00:48:06;;;;;;;12.65;6.88;;;;;;;1.98;68.22;100942.22;3819698;23;19923;-78
2021/01/16 00:49:38;;;;;;;11.45;5.95;;;;;;;2.07;68.00;100938.34;3814307;23;20387;-78
2021/01/16 00:51:09;;;;;;;16.85;8.52;;;;;;;2.11;67.94;100946.03;3819393;23;20159;-78
2021/01/16 00:52:40;;;;;;;18.00;9.07;;;;;;;2.00;68.32;100937.75;3816434;23;20455;-78
2021/01/16 00:54:11;;;;;;;16.27;8.18;;;;;;;1.96;68.65;100938.78;3819446;23;20100;-78
2021/01/16 00:55:44;;;;;;;17.05;9.38;;;;;;;1.90;68.73;100945.19;3817039;23;20264;-78
2021/01/16 00:57:15;;;;;;;16.88;8.98;;;;;;;1.89;68.92;100938.19;3819617;23;20022;-78
2021/01/16 00:58:47;;;;;;;17.65;10.02;;;;;;;1.84;68.79;100941.03;3819904;23;20074;-78
2021/01/16 01:00:21;;;;;;;18.10;9.63;;;;;;;1.85;69.09;100937.47;3827467;23;20028;-79
2021/01/16 01:01:54;;;;;;;18.25;10.00;;;;;;;1.80;69.26;100943.88;3817887;23;20026;-79
2021/01/16 01:03:28;;;;;;;17.83;9.20;;;;;;;1.75;69.45;100943.22;3820758;23;20021;-78
2021/01/16 01:04:59;;;;;;;17.45;9.40;;;;;;;1.75;69.39;100940.59;3817245;23;20030;-78
2021/01/16 01:06:30;;;;;;;;;;;;;;;1.56;70.15;100950.13;3820152;23;20478;-78
2021/01/16 01:08:02;;;;;;;19.25;9.82;;;;;;;1.64;69.96;100941.91;3816676;23;19917;-78
2021/01/16 01:09:33;;;;;;;19.25;10.55;;;;;;;1.65;69.90;100945.41;3819073;23;20022;-78
2021/01/16 01:11:06;;;;;;;17.10;9.05;;;;;;;1.64;69.92;100946.34;3817109;23;20028;-78
2021/01/16 01:12:43;;;;;;;17.35;9.48;;;;;;;1.62;70.11;100941.09;3818680;23;20455;-79
2021/01/16 01:14:15;;;;;;;20.75;9.35;;;;;;;1.62;70.23;100956.06;3821147;23;20021;-79
2021/01/16 01:15:46;;;;;;;17.27;10.20;;;;;;;1.61;70.00;100943.81;3818418;23;20049;-78
2021/01/16 01:17:19;;;;;;;18.30;9.98;;;;;;;1.61;70.24;100938.53;3820550;23;20030;-78
2021/01/16 01:18:50;;;;;;;13.88;7.78;;;;;;;1.63;70.27;100937.56;3816763;23;20025;-78
2021/01/16 01:20:22;;;;;;;17.75;9.60;;;;;;;1.63;70.25;100942.81;3820994;23;20029;-78
2021/01/16 01:21:53;;;;;;;21.45;10.57;;;;;;;1.62;70.43;100941.09;3818567;23;20026;-79
2021/01/16 01:23:24;;;;;;;;;;;;;;;1.48;70.84;100946.97;3820739;23;20033;-79
2021/01/16 01:24:55;;;;;;;17.60;8.90;;;;;;;1.45;71.02;100938.34;3816555;23;20289;-78
2021/01/16 01:26:30;;;;;;;18.10;10.07;;;;;;;1.50;70.76;100939.00;3819126;23;20025;-78
2021/01/16 01:28:02;;;;;;;16.27;8.95;;;;;;;1.55;70.65;100935.25;3817580;23;20045;-77
2021/01/16 01:29:33;;;;;;;18.15;9.52;;;;;;;1.54;70.66;100932.66;3819825;23;20037;-79
2021/01/16 01:31:05;;;;;;;14.93;8.00;;;;;;;1.65;70.27;100930.44;3816452;23;20106;-78
2021/01/16 01:32:36;;;;;;;16.13;8.40;;;;;;;1.61;70.26;100938.53;3817794;23;20025;-77
2021/01/16 01:34:08;;;;;;;16.80;9.48;;;;;;;1.59;70.47;100935.97;3816172;23;20021;-78
2021/01/16 01:35:39;;;;;;;17.33;9.85;;;;;;;1.56;70.85;100942.22;3820737;23;20021;-79
2021/01/16 01:37:12;;;;;;;;;;;;;;;1.46;71.10;100942.69;3818250;23;20080;-78
2021/01/16 01:38:43;;;;;;;18.10;10.00;;;;;;;1.53;71.04;100938.84;3819973;23;19978;-78
2021/01/16 01:40:16;;;;;;;21.55;10.70;;;;;;;1.55;70.96;100940.53;3816747;23;20025;-78
2021/01/16 01:41:50;;;;;;;18.20;10.07;;;;;;;1.54;71.04;100940.56;3820258;23;20021;-78
2021/01/16 01:43:21;;;;;;;16.20;9.07;;;;;;;1.60;70.62;100942.97;3818169;23;20045;-78
2021/01/16 01:44:56;;;;;;;19.25;10.25;;;;;;;1.60;70.76;100942.97;3820370;23;20022;-78
2021/01/16 01:46:27;;;;;;;18.08;8.43;;;;;;;1.57;70.89;100932.56;3817161;23;20021;-78
2021/01/16 01:47:59;;;;;;;17.33;8.90;;;;;;;1.61;70.57;100934.13;3819952;23;20089;-78
2021/01/16 01:49:31;;;;;;;20.17;10.63;;;;;;;1.61;70.63;100941.19;3817925;23;20467;-78
2021/01/16 01:51:05;;;;;;;18.20;9.65;;;;;;;1.60;70.73;100942.97;3820979;23;20029;-78
2021/01/16 01:52:37;;;;;;;16.70;9.20;;;;;;;1.60;70.73;100939.47;3818125;23;20071;-77
2021/01/16 01:54:10;;;;;;;20.50;10.13;;;;;;;1.59;70.90;100935.97;3819641;23;20493;-78
2021/01/16 01:55:46;;;;;;;19.45;9.43;;;;;;;1.61;70.69;100935.91;3817339;23;20018;-78
2021/01/16 01:57:20;;;;;;;14.88;7.45;;;;;;;1.69;70.66;100936.44;3820411;23;20072;-78
2021/01/16 01:58:52;;;;;;;14.48;7.15;;;;;;;1.74;70.46;100937.09;3816973;23;20483;-78
2021/01/16 02:00:24;;;;;;;15.98;7.88;;;;;;;1.78;70.38;100935.19;3820487;23;20160;-78
2021/01/16 02:01:57;;;;;;;13.10;7.18;;;;;;;1.85;70.26;100936.63;3818187;23;20021;-78
2021/01/16 02:03:32;;;;;;;18.00;9.65;;;;;;;1.79;70.16;100934.28;3820025;23;20021;-78
2021/01/16 02:05:05;;;;;;;20.55;10.00;;;;;;;1.75;70.45;100944.06;3817425;23;20396;-78
2021/01/16 02:06:37;;;;;;;18.38;9.65;;;;;;;1.69;70.81;100932.03;3818065;23;20026;-78
2021/01/16 02:08:08;;;;;;;17.73;9.88;;;;;;;1.64;70.71;100939.28;3822253;23;20041;-78
2021/01/16 02:09:39;;;;;;;16.50;9.50;;;;;;;1.68;70.68;100942.63;3824010;23;20459;-78
2021/01/16 02:11:10;;;;;;;;;;;;;;;1.58;71.02;100933.41;3825309;23;20048;-79
2021/01/16 02:12:44;;;;;;;13.75;7.20;;;;;;;1.67;70.61;100933.88;3821822;23;19917;-79
2021/01/16 02:14:16;;;;;;;17.48;8.43;;;;;;;1.76;70.31;100937.03;3823994;23;20026;-79
2021/01/16 02:15:53;;;;;;;22.50;10.73;;;;;;;1.66;70.50;100941.81;3820004;23;20028;-79
2021/01/16 02:17:27;;;;;;;21.80;9.80;;;;;;;1.62;70.63;100932.34;3824513;23;20028;-79
2021/01/16 02:19:02;;;;;;;19.95;9.20;;;;;;;1.62;70.77;100938.47;3821358;23;20017;-79
2021/01/16 02:20:36;;;;;;;18.92;9.93;;;;;;;1.60;70.74;100932.44;3823690;23;20032;-79
2021/01/16 02:22:08;;;;;;;17.05;9.00;;;;;;;1.63;70.70;100931.44;3820273;23;20091;-78
2021/01/16 02:23:51;;;;;;;16.77;7.75;;;;;;;1.69;70.46;100929.41;3819660;23;20021;-79
2021/01/16 02:25:37;;;;;;;20.75;10.07;;;;;;;1.69;70.58;100934.69;3817161;23;20022;-78
2021/01/16 02:27:35;;;;;;;17.90;8.60;;;;;;;1.66;70.86;100937.44;3820284;23;20359;-79
2021/01/16 02:29:08;;;;;;;17.30;9.10;;;;;;;1.64;70.79;100933.16;3817206;23;20462;-78
2021/01/16 02:30:41;;;;;;;18.95;9.60;;;;;;;1.65;70.85;100935.72;3817321;23;20022;-79
2021/01/16 02:32:17;;;;;;;19.55;10.57;;;;;;;1.61;70.96;100934.13;3819582;23;20033;-78
2021/01/16 02:33:48;;;;;;;20.90;10.90;;;;;;;1.58;71.09;100933.41;3817497;23;20049;-79
2021/01/16 02:35:20;;;;;;;;;;;;;;;1.47;71.71;100934.69;3819953;23;20052;-78
2021/01/16 02:37:30;;;;;;;17.40;9.38;;;;;;;1.53;71.00;100933.59;3817357;23;20338;-78
2021/01/16 02:39:06;;;;;;;18.92;9.65;;;;;;;1.46;71.25;100932.16;3819473;23;20329;-78
2021/01/16 02:40:41;;;;;;;15.70;8.77;;;;;;;1.51;71.15;100932.81;3817460;23;20018;-79
2021/01/16 02:42:24;;;;;;;21.50;10.38;;;;;;;1.48;71.10;100938.22;3819766;23;20025;-78
2021/01/16 02:44:05;;;;;;;19.58;9.65;;;;;;;1.52;70.95;100929.25;3819106;23;20026;-78
2021/01/16 02:45:43;;;;;;;19.05;10.45;;;;;;;1.47;70.96;100925.97;3826262;23;20036;-79
2021/01/16 02:47:25;;;;;;;20.50;9.77;;;;;;;1.51;71.01;100932.81;3831879;23;20122;-78
2021/01/16 02:49:09;;;;;;;17.33;8.77;;;;;;;1.61;70.58;100931.47;3822101;23;20391;-78
2021/01/16 02:50:44;;;;;;;18.55;9.90;;;;;;;1.62;70.62;100933.19;3821983;23;20022;-78
2021/01/16 02:52:19;;;;;;;17.40;9.25;;;;;;;1.61;70.71;100931.47;3818695;23;20356;-78
2021/01/16 02:53:51;;;;;;;20.25;10.27;;;;;;;1.60;70.82;100935.06;3820211;23;20040;-78
2021/01/16 02:55:23;;;;;;;18.30;9.88;;;;;;;1.59;70.79;100927.19;3817785;23;20021;-78
2021/01/16 02:56:54;;;;;;;17.85;8.15;;;;;;;1.66;70.54;100926.88;3818953;23;20017;-78
2021/01/16 02:58:26;;;;;;;16.27;8.30;;;;;;;1.70;70.38;100927.59;3816876;23;20026;-78
2021/01/16 02:59:57;;;;;;;14.30;7.82;;;;;;;1.73;70.24;100923.97;3818820;23;20471;-78
2021/01/16 03:01:28;;;;;;;;;;;;;;;1.64;70.40;100936.63;3817921;23;20014;-78
2021/01/16 03:03:00;;;;;;;18.50;9.60;;;;;;;1.67;70.59;100931.25;3819222;23;20254;-78
2021/01/16 03:04:34;;;;;;;20.90;10.30;;;;;;;1.68;70.17;100925.03;3817385;23;20026;-78
2021/01/16 03:06:07;;;;;;;16.33;8.93;;;;;;;1.67;70.44;100925.97;3819361;23;20044;-78
2021/01/16 03:07:40;;;;;;;19.10;9.48;;;;;;;1.66;70.42;100926.88;3817392;23;20017;-79
2021/01/16 03:09:12;;;;;;;21.60;10.70;;;;;;;1.64;70.47;100933.16;3819128;23;20084;-78
2021/01/16 03:10:44;;;;;;;18.98;10.43;;;;;;;1.60;70.48;100924.53;3817763;23;20029;-78
2021/01/16 03:12:16;;;;;;;16.45;8.10;;;;;;;1.69;70.23;100925.88;3819588;23;20026;-78
2021/01/16 03:13:49;;;;;;;17.85;9.05;;;;;;;1.67;70.38;100917.19;3817780;23;20074;-78
2021/01/16 03:15:21;;;;;;;21.70;9.95;;;;;;;1.68;70.04;100922.41;3819456;23;20032;-78
2021/01/16 03:17:05;;;;;;;16.73;9.00;;;;;;;1.65;70.02;100925.16;3817245;23;20022;-78
2021/01/16 03:18:43;;;;;;;16.25;8.63;;;;;;;1.75;69.93;100924.78;3817542;23;20447;-78
2021/01/16 03:20:21;;;;;;;17.27;8.10;;;;;;;1.82;69.77;100920.94;3819803;23;20018;-78
2021/01/16 03:21:52;;;;;;;17.40;8.93;;;;;;;1.75;70.06;100928.25;3817652;23;20100;-78
2021/01/16 03:23:23;;;;;;;;;;;;;;;1.58;70.47;100923.72;3820137;23;20465;-78
2021/01/16 03:24:55;;;;;;;22.10;11.35;;;;;;;1.56;70.47;100920.28;3817679;23;19920;-78
2021/01/16 03:26:27;;;;;;;18.70;9.68;;;;;;;1.54;70.53;100919.50;3819787;23;20459;-78
2021/01/16 03:27:59;;;;;;;19.02;10.05;;;;;;;1.58;70.51;100936.91;3816806;23;20029;-79
2021/01/16 03:29:32;;;;;;;20.00;10.27;;;;;;;1.54;70.56;100919.50;3819510;23;20025;-79
2021/01/16 03:31:04;;;;;;;17.83;9.32;;;;;;;1.58;70.71;100930.75;3816466;23;20035;-78
2021/01/16 03:32:35;;;;;;;18.55;9.82;;;;;;;1.52;70.83;100931.88;3819817;23;20021;-79
2021/01/16 03:34:06;;;;;;;;;;;;;;;1.39;71.20;100934.16;3818481;23;20017;-78
2021/01/16 03:35:38;;;;;;;18.73;9.57;;;;;;;1.45;70.92;100926.03;3820930;23;19939;-78
2021/01/16 03:37:12;;;;;;;18.60;9.38;;;;;;;1.47;70.93;100931.22;3819930;23;20021;-79
2021/01/16 03:38:46;;;;;;;19.05;9.20;;;;;;;1.47;70.86;100936.50;3830038;23;20033;-78
2021/01/16 03:40:23;;;;;;;16.80;9.27;;;;;;;1.52;70.78;100934.50;3823878;23;20347;-78
2021/01/16 03:41:58;;;;;;;19.35;10.23;;;;;;;1.54;70.59;100930.03;3826095;23;20027;-78
2021/01/16 03:43:31;;;;;;;20.05;9.68;;;;;;;1.40;71.11;100927.97;3824062;23;20021;-78
2021/01/16 03:45:03;;;;;;;18.17;10.50;;;;;;;1.39;71.06;100929.78;3827583;23;20052;-78
2021/01/16 03:46:35;;;;;;;21.77;10.05;;;;;;;1.43;70.78;100924.34;3818569;23;20496;-78
2021/01/16 03:48:07;;;;;;;17.02;9.07;;;;;;;1.48;70.72;100928.50;3820638;23;20021;-78
2021/01/16 03:49:38;;;;;;;17.17;8.65;;;;;;;1.50;70.63;100931.09;3815724;23;20028;-78
2021/01/16 03:51:09;;;;;;;;;;;;;;;1.41;71.03;100929.69;3821905;23;20018;-78
2021/01/16 03:52:41;;;;;;;17.83;8.85;;;;;;;1.48;70.85;100923.25;3818745;23;19932;-78
2021/01/16 03:54:12;;;;;;;17.95;9.95;;;;;;;1.36;70.78;100924.63;3821415;23;20038;-78
2021/01/16 03:55:45;;;;;;;17.92;9.55;;;;;;;1.39;70.71;100926.25;3818233;23;20121;-78
2021/01/16 03:57:24;;;;;;;15.82;8.05;;;;;;;1.47;70.23;100924.16;3821354;23;20032;-78
2021/01/16 03:58:56;;;;;;;16.48;8.27;;;;;;;1.60;70.24;100921.00;3818234;23;20029;-78
2021/01/16 04:00:27;;;;;;;18.88;9.50;;;;;;;1.63;70.15;100924.38;3824470;23;20130;-78
2021/01/16 04:01:59;;;;;;;21.83;9.98;;;;;;;1.62;70.01;100935.00;3829144;23;20048;-79
2021/01/16 04:03:43;;;;;;;17.48;8.52;;;;;;;1.66;69.88;100936.56;3831744;23;20021;-78
2021/01/16 04:05:14;;;;;;;14.65;8.18;;;;;;;1.66;69.94;100921.63;3820872;23;20041;-78
2021/01/16 04:06:46;;;;;;;14.55;7.75;;;;;;;1.70;69.76;100928.44;3818409;23;20088;-79
2021/01/16 04:08:20;;;;;;;17.85;9.40;;;;;;;1.69;69.84;100925.88;3819782;23;20026;-79
2021/01/16 04:10:10;;;;;;;17.17;7.97;;;;;;;1.79;69.38;100923.72;3818035;23;20029;-79
2021/01/16 04:11:42;;;;;;;;;;;;;;;1.72;69.25;100925.78;3817460;23;20017;-79
2021/01/16 04:13:14;;;;;;;16.38;8.63;;;;;;;1.79;69.19;100929.00;3818757;23;19931;-78
2021/01/16 04:14:45;;;;;;;18.92;10.18;;;;;;;1.66;69.40;100926.88;3819853;23;20037;-78
2021/01/16 04:16:17;;;;;;;20.77;10.70;;;;;;;1.60;69.55;100926.28;3817942;23;20029;-78
2021/01/16 04:17:49;;;;;;;18.50;9.75;;;;;;;1.69;69.44;100931.16;3820825;23;20021;-78
2021/01/16 04:19:21;;;;;;;15.73;8.77;;;;;;;1.68;69.45;100930.31;3818250;23;20025;-78
2021/01/16 04:20:52;;;;;;;14.85;7.45;;;;;;;1.78;69.24;100930.75;3819549;23;20052;-78
2021/01/16 04:22:23;;;;;;;16.20;7.68;;;;;;;1.82;69.01;100931.47;3816428;23;20119;-78
2021/01/16 04:23:54;;;;;;;18.80;9.75;;;;;;;1.76;69.15;100932.59;3819106;23;20021;-78
2021/01/16 04:25:25;;;;;;;;;;;;;;;1.69;68.95;100926.75;3817122;23;20597;-77
2021/01/16 04:26:57;;;;;;;16.40;7.78;;;;;;;1.78;69.01;100930.75;3818667;23;19983;-77
2021/01/16 04:28:29;;;;;;;14.98;7.55;;;;;;;1.83;68.90;100928.81;3816715;23;20041;-78
2021/01/16 04:30:03;;;;;;;17.70;8.45;;;;;;;1.89;68.64;100927.66;3819914;23;20045;-78
2021/01/16 04:31:35;;;;;;;18.58;9.35;;;;;;;1.86;68.69;100928.66;3816637;23;20044;-79
2021/01/16 04:33:07;;;;;;;15.57;7.95;;;;;;;1.90;68.51;100926.72;3819040;23;20017;-78
2021/01/16 04:34:38;;;;;;;16.67;7.88;;;;;;;1.91;68.55;100917.91;3817441;23;20459;-78
2021/01/16 04:36:09;;;;;;;16.02;8.25;;;;;;;1.90;68.48;100921.44;3819484;23;20049;-78
2021/01/16 04:37:48;;;;;;;15.68;7.60;;;;;;;1.86;68.25;100918.09;3816892;23;20183;-78
2021/01/16 04:39:19;;;;;;;19.15;9.68;;;;;;;1.86;68.53;100925.16;3819698;23;20074;-78
2021/01/16 04:40:51;;;;;;;17.42;9.32;;;;;;;1.84;68.20;100914.66;3817300;23;20028;-79
2021/01/16 04:42:22;;;;;;;18.13;10.05;;;;;;;1.78;68.25;100920.22;3822450;23;20021;-78
2021/01/16 04:43:55;;;;;;;16.17;9.27;;;;;;;1.75;68.28;100914.22;3816875;23;20053;-78
2021/01/16 04:45:33;;;;;;;16.52;8.07;;;;;;;1.75;68.19;100914.22;3819276;23;20451;-78
2021/01/16 04:47:08;;;;;;;15.13;7.72;;;;;;;1.81;68.11;100913.94;3817447;23;20072;-78
2021/01/16 04:48:44;;;;;;;16.13;7.68;;;;;;;1.84;67.96;100919.09;3817290;23;20028;-78
2021/01/16 04:50:17;;;;;;;16.77;8.27;;;;;;;1.77;67.82;100917.66;3819602;23;20029;-78
2021/01/16 04:51:53;;;;;;;19.55;9.80;;;;;;;1.62;68.10;100930.56;3818130;23;20351;-78
2021/01/16 04:53:31;;;;;;;16.42;8.32;;;;;;;1.66;68.27;100921.63;3820169;23;20769;-77
2021/01/16 04:55:07;;;;;;;18.83;10.07;;;;;;;1.67;68.34;100925.09;3816448;23;20021;-79
2021/01/16 04:56:40;;;;;;;14.77;7.43;;;;;;;1.69;68.09;100924.13;3818844;23;20029;-77
2021/01/16 04:58:15;;;;;;;15.88;8.98;;;;;;;1.74;68.19;100928.31;3817103;23;20049;-78
2021/01/16 04:59:48;;;;;;;18.33;10.80;;;;;;;1.61;68.15;100913.03;3820160;23;20029;-78
2021/01/16 05:01:20;;;;;;;19.55;10.85;;;;;;;1.47;68.03;100918.06;3816942;23;20362;-78
2021/01/16 05:02:56;;;;;;;18.42;9.90;;;;;;;1.47;66.94;100916.25;3819508;23;20026;-78
2021/01/16 05:04:31;;;;;;;17.58;8.68;;;;;;;1.52;66.61;100923.97;3817010;23;20116;-77
2021/01/16 05:06:04;;;;;;;13.38;6.60;;;;;;;1.56;66.26;100926.41;3819506;23;20029;-78
2021/01/16 05:07:39;;;;;;;17.25;9.02;;;;;;;1.53;65.44;100930.94;3816994;23;20021;-79
2021/01/16 05:09:11;;;;;;;15.10;8.02;;;;;;;1.55;65.74;100923.84;3818608;23;20470;-78
2021/01/16 05:10:44;;;;;;;20.70;10.93;;;;;;;1.51;66.46;100922.28;3818219;23;20073;-78
2021/01/16 05:12:34;;;;;;;18.27;9.68;;;;;;;1.40;67.51;100923.59;3820871;23;20021;-78
2021/01/16 05:14:18;;;;;;;18.55;7.80;;;;;;;1.45;67.74;100922.53;3819404;23;20024;-78
2021/01/16 05:16:19;;;;;;;18.70;9.85;;;;;;;1.43;67.72;100924.34;3817497;23;20022;-79
2021/01/16 05:18:19;;;;;;;20.27;10.45;;;;;;;1.39;67.39;100916.59;3821321;23;20018;-78
2021/01/16 05:20:25;;;;;;;18.33;10.18;;;;;;;1.30;67.98;100919.63;3818653;23;20025;-78
2021/01/16 05:22:18;;;;;;;21.63;10.82;;;;;;;1.35;68.21;100927.34;3815556;23;20176;-79
2021/01/16 05:24:15;;;;;;;19.85;10.18;;;;;;;1.36;68.44;100915.88;3822416;23;20073;-78
2021/01/16 05:26:12;;;;;;;18.67;8.88;;;;;;;1.35;68.52;100917.63;3818262;23;20029;-78
2021/01/16 05:28:14;;;;;;;27.88;10.85;;;;;;;1.39;68.73;100919.22;3820508;23;20109;-78
2021/01/16 05:29:58;;;;;;;20.88;10.63;;;;;;;1.37;68.92;100923.72;3821810;23;20080;-78
2021/01/16 05:31:54;;;;;;;18.83;10.52;;;;;;;1.34;69.08;100931.72;3819187;23;20044;-78
2021/01/16 05:33:30;;;;;;;19.27;9.70;;;;;;;1.46;68.73;100926.88;3821008;23;20127;-78
2021/01/16 05:35:14;;;;;;;17.80;8.10;;;;;;;1.50;68.53;100926.69;3818810;23;20491;-79
2021/01/16 05:36:48;;;;;;;18.00;9.13;;;;;;;1.59;68.30;100928.06;3821175;23;20025;-79
2021/01/16 05:38:25;;;;;;;20.75;11.45;;;;;;;1.35;69.08;100925.53;3824458;23;20029;-79
2021/01/16 05:39:57;;;;;;;21.08;10.57;;;;;;;1.42;68.95;100930.56;3820333;23;20131;-79
2021/01/16 05:41:29;;;;;;;23.20;13.23;;;;;;;1.31;69.46;100926.59;3823971;23;20105;-79
2021/01/16 05:43:00;;;;;;;24.77;12.15;;;;;;;1.24;69.80;100930.38;3822969;23;20478;-79
2021/01/16 05:44:34;;;;;;;19.27;10.95;;;;;;;1.22;69.80;100933.09;3823941;23;20097;-79
2021/01/16 05:46:10;;;;;;;25.33;11.00;;;;;;;1.23;69.82;100928.66;3822908;23;20017;-78
2021/01/16 05:47:44;;;;;;;22.45;11.98;;;;;;;1.20;69.83;100928.81;3825221;23;20043;-79
2021/01/16 05:49:16;;;;;;;22.48;10.82;;;;;;;1.25;69.91;100932.09;3822142;23;20423;-78
2021/01/16 05:50:51;;;;;;;22.13;11.05;;;;;;;1.22;70.14;100938.38;3824359;23;20418;-79
2021/01/16 05:52:22;;;;;;;23.00;12.05;;;;;;;1.16;70.08;100924.59;3821134;23;20025;-79
2021/01/16 05:53:54;;;;;;;;;;;;;;;1.09;70.78;100924.84;3824576;23;20080;-78
2021/01/16 05:55:29;;;;;;;17.63;9.23;;;;;;;1.18;70.24;100915.69;3820252;23;19916;-79
2021/01/16 05:57:04;;;;;;;17.40;9.70;;;;;;;1.26;69.78;100911.91;3821831;23;20029;-79
2021/01/16 05:58:36;;;;;;;18.58;10.45;;;;;;;1.23;69.87;100913.75;3824316;23;20014;-79
2021/01/16 06:00:09;;;;;;;17.27;8.80;;;;;;;1.31;69.52;100909.94;3829912;23;20048;-78
2021/01/16 06:01:45;;;;;;;22.52;10.52;;;;;;;1.30;69.69;100919.63;3827752;23;20052;-79
2021/01/16 06:03:20;;;;;;;23.35;11.75;;;;;;;1.23;69.89;100923.41;3829896;23;20492;-78
2021/01/16 06:04:55;;;;;;;24.52;11.15;;;;;;;1.17;70.11;100918.41;3824916;23;20025;-79
2021/01/16 06:06:27;;;;;;;20.40;10.48;;;;;;;1.15;70.46;100917.59;3823596;23;20025;-78
2021/01/16 06:07:58;;;;;;;20.38;11.35;;;;;;;1.13;70.44;100915.03;3820045;23;20035;-78
2021/01/16 06:09:30;;;;;;;21.85;10.80;;;;;;;1.20;70.24;100920.91;3821084;23;20021;-78
2021/01/16 06:11:01;;;;;;;17.30;10.50;;;;;;;1.25;69.94;100916.31;3819093;23;20045;-78
2021/01/16 06:12:33;;;;;;;20.13;11.10;;;;;;;1.26;69.97;100918.03;3821266;23;20029;-79
2021/01/16 06:14:07;;;;;;;22.65;10.55;;;;;;;1.31;69.92;100923.09;3818188;23;20030;-78
2021/01/16 06:15:43;;;;;;;22.13;11.30;;;;;;;1.26;70.08;100917.19;3819295;23;20025;-78
2021/01/16 06:17:15;;;;;;;20.60;11.02;;;;;;;1.23;70.15;100911.09;3829110;23;20025;-80
2021/01/16 06:18:51;;;;;;;21.25;11.10;;;;;;;1.25;70.08;100913.66;3831087;23;20025;-79
2021/01/16 06:20:23;;;;;;;26.48;13.55;;;;;;;1.19;70.02;100917.41;3833658;23;20029;-78
2021/01/16 06:21:55;;;;;;;21.67;12.00;;;;;;;1.18;70.14;100922.75;3827646;23;20053;-78
2021/01/16 06:23:30;;;;;;;19.67;10.30;;;;;;;1.21;70.12;100912.09;3822149;23;20536;-78
2021/01/16 06:25:15;;;;;;;16.50;8.48;;;;;;;1.33;69.79;100913.34;3819375;23;20013;-78
2021/01/16 06:26:56;;;;;;;19.80;11.02;;;;;;;1.30;69.63;100910.84;3821875;23;20021;-78
2021/01/16 06:28:28;;;;;;;21.55;11.07;;;;;;;1.18;70.00;100920.13;3817624;23;20346;-78
2021/01/16 06:30:03;;;;;;;23.20;10.93;;;;;;;1.23;69.95;100923.41;3821273;23;20025;-79
2021/01/16 06:31:35;;;;;;;23.33;11.40;;;;;;;1.28;69.79;100918.81;3818463;23;20025;-78
2021/01/16 06:33:21;;;;;;;21.38;9.95;;;;;;;1.28;69.87;100928.47;3821194;23;20021;-78
2021/01/16 06:35:07;;;;;;;20.27;11.00;;;;;;;1.18;69.93;100920.13;3818468;23;20214;-78
2021/01/16 06:36:39;;;;;;;17.27;9.27;;;;;;;1.26;70.08;100915.38;3821160;23;20530;-78
2021/01/16 06:38:13;;;;;;;19.13;9.82;;;;;;;1.36;69.66;100919.34;3827697;23;20029;-78
2021/01/16 06:39:46;;;;;;;25.63;12.02;;;;;;;1.28;69.68;100916.19;3821119;23;20061;-78
2021/01/16 06:41:18;;;;;;;21.95;11.73;;;;;;;1.18;69.91;100915.69;3821605;23;20084;-78
2021/01/16 06:42:51;;;;;;;19.20;11.00;;;;;;;1.22;69.92;100908.53;3821236;23;20025;-77
2021/01/16 06:44:47;;;;;;;20.52;11.88;;;;;;;1.09;70.27;100913.44;3835839;23;20010;-78
2021/01/16 06:46:17;;;;;;;19.52;10.23;;;;;;;1.14;70.24;100905.34;3831701;23;20025;-78
2021/01/16 06:47:54;;;;;;;;;;;;;;;1.01;70.43;100908.50;3834554;23;20075;-77
2021/01/16 06:49:26;;;;;;;22.08;10.93;;;;;;;1.09;70.40;100911.69;3818086;23;20227;-78
2021/01/16 06:50:59;;;;;;;23.00;11.48;;;;;;;1.05;70.42;100915.34;3820256;23;20351;-78
2021/01/16 06:52:38;;;;;;;22.58;11.55;;;;;;;1.09;70.31;100916.94;3818177;23;20017;-78
2021/01/16 06:54:09;;;;;;;20.63;11.35;;;;;;;1.08;70.42;100915.22;3820372;23;20402;-78
2021/01/16 06:56:03;;;;;;;20.10;10.38;;;;;;;1.15;70.12;100913.22;3818165;23;20364;-78
2021/01/16 06:57:34;;;;;;;19.17;9.57;;;;;;;1.17;70.11;100911.38;3820826;23;20026;-78
2021/01/16 06:59:13;;;;;;;20.10;11.07;;;;;;;1.21;69.85;100917.38;3818210;23;20022;-78
2021/01/16 07:00:55;;;;;;;23.13;10.80;;;;;;;1.18;69.90;100912.22;3818696;23;20025;-79
2021/01/16 07:02:29;;;;;;;24.65;11.85;;;;;;;1.20;69.95;100905.13;3820404;23;20053;-79
2021/01/16 07:04:03;;;;;;;18.55;10.60;;;;;;;1.19;69.90;100908.66;3818468;23;20041;-78
2021/01/16 07:05:34;;;;;;;23.15;11.73;;;;;;;1.07;70.33;100905.59;3820429;23;20022;-78
2021/01/16 07:07:05;;;;;;;24.35;12.55;;;;;;;1.05;70.58;100903.97;3818041;23;20018;-78
2021/01/16 07:08:39;;;;;;;;;;;;;;;1.03;70.66;100904.03;3820723;23;20043;-78
2021/01/16 07:10:13;;;;;;;31.15;15.02;;;;;;;1.17;70.20;100907.88;3817453;23;19947;-79
2021/01/16 07:11:46;;;;;;;23.50;11.93;;;;;;;1.09;70.47;100911.69;3820559;23;20033;-78
2021/01/16 07:13:20;;;;;;;21.70;11.57;;;;;;;1.19;70.28;100908.66;3821298;23;20021;-79
2021/01/16 07:14:51;;;;;;;21.27;11.15;;;;;;;1.07;70.55;100907.41;3823240;23;20068;-78
2021/01/16 07:16:23;;;;;;;25.67;12.82;;;;;;;1.18;70.38;100909.59;3817249;23;20024;-78
2021/01/16 07:18:00;;;;;;;25.20;12.27;;;;;;;1.13;70.40;100899.22;3820379;23;20478;-78
2021/01/16 07:19:35;;;;;;;24.70;12.35;;;;;;;1.15;70.38;100907.06;3818198;23;20488;-78
2021/01/16 07:21:08;;;;;;;23.73;12.52;;;;;;;1.03;70.99;100908.44;3821311;23;20021;-79
2021/01/16 07:22:45;;;;;;;22.55;11.65;;;;;;;1.07;70.74;100915.31;3818332;23;20017;-79